createdAt,value
2022-12-08T01:49:35.474Z,93.36
2022-12-08T02:07:10.394Z,91.55
2022-12-08T02:09:41.961Z,91.23
2022-12-08T02:12:11.741Z,91.61
2022-12-08T02:14:40.444Z,92.00
2022-12-08T02:17:33.809Z,91.45
2022-12-08T02:20:23.179Z,91.80
2022-12-08T02:23:11.633Z,90.82
2022-12-08T02:26:37.282Z,89.99
2022-12-08T02:30:02.348Z,89.44
2022-12-08T02:32:49.293Z,89.25
2022-12-08T02:35:49.911Z,90.36
2022-12-08T02:38:55.765Z,90.72
2022-12-08T02:41:32.135Z,91.09
2022-12-08T02:44:30.134Z,90.27
2022-12-08T02:47:16.505Z,90.87
2022-12-08T02:49:45.561Z,91.83
2022-12-08T02:52:14.029Z,92.14
2022-12-08T02:54:49.619Z,92.76
2022-12-08T02:57:56.957Z,93.30
2022-12-08T03:00:30.085Z,94.54
2022-12-08T03:03:38.422Z,93.93
2022-12-08T03:06:25.129Z,93.54
2022-12-08T03:09:12.903Z,91.58
2022-12-08T03:12:18.001Z,91.09
2022-12-08T03:14:53.477Z,89.93
2022-12-08T03:17:26.669Z,88.97
2022-12-08T03:19:57.467Z,88.52
2022-12-08T03:22:29.464Z,88.53
2022-12-08T03:24:58.641Z,88.76
2022-12-08T03:27:30.425Z,88.85
2022-12-08T03:30:00.799Z,88.76
2022-12-08T03:32:48.777Z,88.71
2022-12-08T03:35:24.302Z,88.65
2022-12-08T03:37:52.888Z,88.77
2022-12-08T03:40:21.469Z,89.32
2022-12-08T03:42:50.185Z,89.75
2022-12-08T03:45:18.836Z,89.80
2022-12-08T03:47:47.420Z,89.87
2022-12-08T03:50:16.515Z,89.87
2022-12-08T03:52:45.197Z,90.22
2022-12-08T03:55:13.919Z,90.75
2022-12-08T03:57:43.095Z,90.62
2022-12-08T04:00:16.098Z,92.03
2022-12-08T04:02:44.727Z,92.74
2022-12-08T04:05:13.445Z,92.36
2022-12-08T04:07:42.154Z,92.53
2022-12-08T04:10:11.524Z,92.94
2022-12-08T04:12:40.110Z,94.11
2022-12-08T04:15:10.233Z,94.54
2022-12-08T04:17:38.941Z,94.00
2022-12-08T04:20:08.075Z,93.75
2022-12-08T04:22:36.798Z,92.58
2022-12-08T04:25:06.437Z,91.25
2022-12-08T04:27:35.096Z,90.26
2022-12-08T04:30:04.300Z,90.00
2022-12-08T04:32:32.975Z,89.93
2022-12-08T04:35:01.313Z,89.53
2022-12-08T04:37:30.037Z,90.51
2022-12-08T04:39:58.377Z,91.35
2022-12-08T04:42:27.001Z,91.73
2022-12-08T04:44:55.684Z,91.94
2022-12-08T04:47:24.219Z,91.86
2022-12-08T04:49:52.702Z,91.18
2022-12-08T04:52:21.204Z,90.00
2022-12-08T04:54:50.126Z,90.02
2022-12-08T04:57:18.704Z,89.73
2022-12-08T04:59:47.157Z,90.05
2022-12-08T05:02:15.981Z,90.30
2022-12-08T05:04:44.490Z,90.54
2022-12-08T05:07:13.242Z,90.86
2022-12-08T05:09:41.930Z,91.06
2022-12-08T05:12:10.911Z,91.78
2022-12-08T05:14:39.605Z,92.16
2022-12-08T05:17:09.802Z,92.03
2022-12-08T05:19:38.644Z,92.21
2022-12-08T05:22:07.401Z,91.80
2022-12-08T05:24:36.029Z,91.82
2022-12-08T05:27:04.536Z,91.27
2022-12-08T05:29:32.983Z,91.02
2022-12-08T05:32:01.634Z,90.99
2022-12-08T05:34:30.380Z,90.91
2022-12-08T05:36:58.982Z,90.79
2022-12-08T05:39:27.574Z,91.01
2022-12-08T05:41:55.998Z,91.23
2022-12-08T05:44:24.531Z,91.20
2022-12-08T05:46:53.218Z,90.93
2022-12-08T05:49:21.666Z,90.50
2022-12-08T05:51:50.275Z,90.08
2022-12-08T05:54:18.871Z,89.64
2022-12-08T05:56:47.501Z,89.13
2022-12-08T05:59:16.929Z,89.39
2022-12-08T06:01:45.486Z,89.50
2022-12-08T06:04:14.036Z,89.32
2022-12-08T06:06:42.762Z,89.52
2022-12-08T06:09:12.683Z,89.91
2022-12-08T06:11:41.239Z,89.94
2022-12-08T06:14:12.837Z,90.08
2022-12-08T06:16:41.487Z,89.70
2022-12-08T06:19:10.250Z,90.16
2022-12-08T06:21:38.747Z,90.28
2022-12-08T06:24:07.646Z,90.66
2022-12-08T06:26:36.476Z,91.35
2022-12-08T06:29:05.341Z,91.84
2022-12-08T06:31:33.894Z,92.16
2022-12-08T06:34:02.795Z,92.47
2022-12-08T06:36:31.285Z,92.39
2022-12-08T06:39:00.141Z,92.39
2022-12-08T06:41:28.979Z,92.71
2022-12-08T06:43:57.925Z,92.59
2022-12-08T06:46:26.577Z,92.49
2022-12-08T06:48:55.216Z,92.40
2022-12-08T06:51:23.939Z,91.98
2022-12-08T06:53:52.369Z,91.72
2022-12-08T06:56:22.613Z,91.32
2022-12-08T06:58:52.999Z,91.73
2022-12-08T07:01:22.365Z,91.85
2022-12-08T07:03:52.454Z,92.58
2022-12-08T07:06:24.498Z,92.91
2022-12-08T07:08:53.183Z,92.91
2022-12-08T07:11:22.693Z,92.46
2022-12-08T07:13:51.367Z,92.33
2022-12-08T07:16:19.962Z,92.91
2022-12-08T07:18:48.499Z,93.67
2022-12-08T07:21:18.496Z,93.76
2022-12-08T07:23:54.343Z,94.22
2022-12-08T07:26:27.164Z,94.77
2022-12-08T07:28:55.942Z,94.44
2022-12-08T07:31:26.022Z,94.35
2022-12-08T07:33:57.086Z,94.31
2022-12-08T07:36:26.314Z,93.55
2022-12-08T07:38:55.076Z,93.24
2022-12-08T07:41:26.212Z,93.24
2022-12-08T07:43:55.861Z,92.71
2022-12-08T07:46:26.019Z,92.72
2022-12-08T07:48:55.756Z,92.62
2022-12-08T07:51:25.443Z,93.39
2022-12-08T07:53:55.129Z,93.88
2022-12-08T07:56:24.771Z,93.18
2022-12-08T07:58:53.745Z,92.78
2022-12-08T08:01:30.132Z,92.80
2022-12-08T08:04:04.875Z,92.96
2022-12-08T08:06:35.417Z,92.73
2022-12-08T08:09:04.740Z,92.08
2022-12-08T08:11:33.356Z,92.26
2022-12-08T08:14:02.092Z,92.55
2022-12-08T08:16:36.567Z,92.29
2022-12-08T08:19:06.768Z,92.14
2022-12-08T08:21:50.736Z,91.80
2022-12-08T08:24:20.532Z,92.01
2022-12-08T08:26:48.945Z,91.78
2022-12-08T08:29:17.549Z,91.55
2022-12-08T08:31:46.126Z,91.58
2022-12-08T08:34:14.606Z,91.23
2022-12-08T08:36:43.275Z,91.43
2022-12-08T08:39:13.169Z,91.32
2022-12-08T08:41:45.198Z,90.58
2022-12-08T08:44:15.766Z,91.34
2022-12-08T08:46:44.462Z,90.33
2022-12-08T08:49:13.295Z,91.10
2022-12-08T08:51:42.631Z,92.72
2022-12-08T08:54:11.597Z,93.76
2022-12-08T08:56:40.437Z,93.42
2022-12-08T08:59:11.087Z,93.84
2022-12-08T09:01:39.952Z,93.85
2022-12-08T09:04:10.579Z,93.21
2022-12-08T09:06:39.458Z,92.31
2022-12-08T09:09:08.208Z,92.82
2022-12-08T09:11:37.146Z,93.15
2022-12-08T09:14:06.710Z,93.30
2022-12-08T09:16:41.783Z,92.37
2022-12-08T09:19:11.031Z,91.91
2022-12-08T09:21:39.830Z,90.90
2022-12-08T09:24:16.037Z,91.10
2022-12-08T09:26:46.040Z,92.54
2022-12-08T09:29:15.631Z,92.82
2022-12-08T09:31:44.358Z,92.51
2022-12-08T09:34:13.110Z,93.67
2022-12-08T09:36:42.152Z,92.79
2022-12-08T09:39:10.636Z,90.96
2022-12-08T09:42:10.076Z,90.85
2022-12-08T09:45:14.751Z,92.07
2022-12-08T09:47:59.715Z,93.36
2022-12-08T09:50:39.342Z,93.70
2022-12-08T09:53:19.062Z,92.69
2022-12-08T09:55:54.108Z,93.04
2022-12-08T09:58:40.282Z,93.53
2022-12-08T10:01:12.775Z,93.50
2022-12-08T10:03:43.048Z,93.95
2022-12-08T10:06:36.236Z,93.48
2022-12-08T10:09:31.359Z,92.49
2022-12-08T10:12:08.353Z,91.92
2022-12-08T10:14:58.877Z,90.99
2022-12-08T10:17:34.787Z,91.03
2022-12-08T10:20:10.044Z,91.98
2022-12-08T10:22:44.491Z,92.25
2022-12-08T10:25:33.462Z,92.65
2022-12-08T10:28:02.278Z,93.14
2022-12-08T10:30:32.034Z,93.84
2022-12-08T10:33:00.882Z,94.85
2022-12-08T10:35:59.080Z,95.76
2022-12-08T10:38:34.368Z,95.24
2022-12-08T10:41:14.175Z,94.40
2022-12-08T10:43:55.162Z,93.32
2022-12-08T10:46:26.514Z,93.85
2022-12-08T10:49:27.002Z,94.20
2022-12-08T10:52:00.009Z,94.13
2022-12-08T10:54:36.816Z,92.65
2022-12-08T10:57:23.862Z,91.11
2022-12-08T10:59:56.525Z,91.42
2022-12-08T11:02:25.278Z,91.72
2022-12-08T11:05:01.856Z,91.34
2022-12-08T11:07:30.786Z,90.94
2022-12-08T11:10:00.362Z,91.42
2022-12-08T11:12:31.785Z,91.23
2022-12-08T11:15:03.618Z,91.28
2022-12-08T11:17:44.479Z,90.42
2022-12-08T11:20:23.380Z,90.33
2022-12-08T11:22:59.070Z,90.80
2022-12-08T11:25:28.918Z,91.28
2022-12-08T11:28:01.008Z,91.12
2022-12-08T11:30:51.355Z,91.46
2022-12-08T11:33:27.074Z,91.59
2022-12-08T11:36:16.210Z,90.71
2022-12-08T11:38:49.806Z,91.36
2022-12-08T11:41:24.441Z,91.51
2022-12-08T11:44:29.480Z,91.42
2022-12-08T11:48:08.941Z,89.97
2022-12-08T11:51:30.233Z,91.20
2022-12-08T11:54:23.828Z,92.64
2022-12-08T11:56:57.908Z,93.98
2022-12-08T11:59:39.763Z,93.90
2022-12-08T12:02:17.733Z,93.26
2022-12-08T12:05:11.435Z,91.96
2022-12-08T12:08:52.632Z,90.49
2022-12-08T12:12:01.741Z,89.80
2022-12-08T12:14:41.906Z,88.84
2022-12-08T12:17:54.947Z,88.89
2022-12-08T12:20:38.806Z,88.54
2022-12-08T12:23:38.557Z,87.50
2022-12-08T12:26:17.488Z,88.05
2022-12-08T12:29:02.878Z,88.15
2022-12-08T12:31:42.757Z,88.53
2022-12-08T12:34:24.374Z,88.59
2022-12-08T12:36:58.485Z,88.21
2022-12-08T12:39:31.569Z,88.35
2022-12-08T12:42:03.682Z,88.07
2022-12-08T12:44:33.045Z,87.67
2022-12-08T12:47:05.129Z,87.86
2022-12-08T12:49:39.582Z,88.09
2022-12-08T12:52:10.801Z,88.84
2022-12-08T12:54:43.863Z,89.82
2022-12-08T12:57:21.509Z,90.40
2022-12-08T12:59:55.546Z,90.28
2022-12-08T13:02:36.878Z,89.87
2022-12-08T13:05:18.849Z,89.61
2022-12-08T13:08:26.669Z,89.52
2022-12-08T13:11:07.264Z,88.89
2022-12-08T13:13:38.285Z,88.51
2022-12-08T13:16:18.605Z,88.28
2022-12-08T13:18:52.789Z,88.24
2022-12-08T13:21:24.418Z,88.30
2022-12-08T13:24:10.795Z,88.48
2022-12-08T13:27:11.539Z,88.51
2022-12-08T13:29:40.782Z,88.04
2022-12-08T13:32:09.912Z,88.20
2022-12-08T13:34:51.581Z,88.35
2022-12-08T13:37:54.483Z,88.30
2022-12-08T13:40:28.038Z,88.34
2022-12-08T13:43:19.060Z,88.28
2022-12-08T13:46:52.305Z,88.16
2022-12-08T13:56:05.408Z,89.18
2022-12-08T13:57:33.992Z,89.04
2022-12-08T14:00:15.982Z,89.62
2022-12-08T14:02:50.777Z,89.22
2022-12-08T14:05:40.788Z,89.21
2022-12-08T14:12:05.320Z,89.81
2022-12-08T14:15:02.616Z,90.42
2022-12-08T14:17:33.948Z,90.44
2022-12-08T14:20:13.174Z,90.52
2022-12-08T14:22:42.157Z,90.80
2022-12-08T14:25:17.749Z,91.25
2022-12-08T14:27:48.191Z,91.50
2022-12-08T14:30:26.390Z,91.89
2022-12-08T14:32:58.925Z,92.39
2022-12-08T14:35:30.474Z,91.97
2022-12-08T14:38:03.789Z,91.96
2022-12-08T14:40:41.864Z,92.03
2022-12-08T14:43:10.352Z,92.11
2022-12-08T14:45:41.822Z,91.68
2022-12-08T14:48:33.805Z,91.90
2022-12-08T14:51:09.526Z,91.83
2022-12-08T14:54:01.740Z,91.94
2022-12-08T14:56:53.033Z,92.13
2022-12-08T14:59:40.346Z,92.12
2022-12-08T15:02:32.269Z,92.61
2022-12-08T15:05:12.186Z,91.92
2022-12-08T15:07:53.803Z,91.76
2022-12-08T15:10:32.316Z,92.29
2022-12-08T15:13:10.824Z,92.12
2022-12-08T15:15:57.392Z,91.99
2022-12-08T15:18:41.234Z,91.97
2022-12-08T15:21:13.150Z,92.03
2022-12-08T15:23:49.267Z,92.83
2022-12-08T15:26:27.297Z,92.88
2022-12-08T15:28:56.022Z,93.31
2022-12-08T15:31:24.527Z,93.30
2022-12-08T15:33:53.076Z,93.34
2022-12-08T15:36:21.506Z,93.51
2022-12-08T15:38:49.967Z,93.78
2022-12-08T15:41:18.448Z,93.87
2022-12-08T15:43:46.869Z,93.56
2022-12-08T15:46:15.440Z,93.18
2022-12-08T15:48:44.018Z,93.72
2022-12-08T15:51:12.428Z,94.36
2022-12-08T15:53:41.034Z,94.54
2022-12-08T15:58:58.916Z,94.02
2022-12-08T16:01:27.835Z,93.75
2022-12-08T16:09:44.266Z,94.28
2022-12-08T16:13:40.420Z,93.53
2022-12-08T16:18:27.068Z,93.56
2022-12-08T16:21:09.642Z,93.66
2022-12-08T16:23:45.469Z,93.77
2022-12-08T16:27:35.485Z,94.36
2022-12-08T16:29:18.334Z,94.18
2022-12-08T16:31:47.351Z,94.47
2022-12-08T16:34:16.377Z,94.34
2022-12-08T16:36:44.817Z,94.48
2022-12-08T16:39:14.118Z,94.65
2022-12-08T16:42:01.173Z,94.02
2022-12-08T16:44:29.670Z,94.42
2022-12-08T16:46:58.153Z,94.93
2022-12-08T16:49:26.604Z,94.48
2022-12-08T16:51:55.149Z,94.92
2022-12-08T16:54:23.645Z,93.96
2022-12-08T16:56:52.153Z,93.64
2022-12-08T16:59:20.652Z,93.71
2022-12-08T17:01:49.098Z,93.80
2022-12-08T17:04:32.907Z,93.73
2022-12-08T17:07:01.725Z,94.51
2022-12-08T17:09:32.208Z,95.10
2022-12-08T17:12:04.119Z,95.58
2022-12-08T17:14:35.661Z,96.16
2022-12-08T17:17:04.516Z,96.35
2022-12-08T17:19:34.147Z,96.20
2022-12-08T17:22:02.689Z,95.75
2022-12-08T17:24:31.897Z,95.60
2022-12-08T17:27:04.515Z,95.96
2022-12-08T17:29:34.692Z,96.61
2022-12-08T17:32:03.775Z,96.19
2022-12-08T17:34:32.526Z,96.13
2022-12-08T17:37:00.948Z,94.94
2022-12-08T17:39:29.442Z,94.74
2022-12-08T17:41:58.055Z,94.06
2022-12-08T17:44:27.998Z,93.84
2022-12-08T17:46:56.710Z,93.72
2022-12-08T17:49:29.840Z,93.61
2022-12-08T17:52:01.366Z,93.41
2022-12-08T17:54:30.865Z,94.17
2022-12-08T17:56:59.696Z,94.51
2022-12-08T17:59:29.000Z,94.36
2022-12-08T18:01:58.313Z,93.64
2022-12-08T18:04:28.982Z,94.03
2022-12-08T18:07:00.628Z,93.60
2022-12-08T18:09:31.810Z,93.03
2022-12-08T18:12:00.760Z,93.08
2022-12-08T18:14:29.518Z,93.95
2022-12-08T18:16:58.133Z,94.35
2022-12-08T18:19:28.035Z,95.14
2022-12-08T18:21:56.502Z,95.75
2022-12-08T18:24:25.220Z,96.01
2022-12-08T18:26:55.542Z,96.02
2022-12-08T18:29:24.742Z,95.47
2022-12-08T18:31:53.243Z,94.77
2022-12-08T18:34:21.973Z,94.48
2022-12-08T18:36:50.554Z,95.69
2022-12-08T18:39:28.852Z,96.65
2022-12-08T18:41:58.986Z,97.20
2022-12-08T18:44:27.811Z,97.32
2022-12-08T18:46:56.362Z,98.05
2022-12-08T18:49:25.215Z,98.22
2022-12-08T18:51:53.695Z,97.35
2022-12-08T18:54:31.585Z,96.95
2022-12-08T18:57:10.869Z,97.08
2022-12-08T18:59:39.385Z,96.07
2022-12-08T19:02:07.999Z,95.74
2022-12-08T19:04:38.880Z,96.02
2022-12-08T19:07:08.198Z,95.33
2022-12-08T19:09:37.190Z,94.90
2022-12-08T19:12:06.837Z,94.67
2022-12-08T19:14:35.446Z,94.88
2022-12-08T19:17:04.031Z,94.90
2022-12-08T19:19:32.691Z,94.81
2022-12-08T19:22:01.301Z,94.44
2022-12-08T19:24:30.088Z,94.65
2022-12-08T19:26:58.670Z,94.48
2022-12-08T19:29:27.284Z,94.69
2022-12-08T19:31:55.939Z,95.00
2022-12-08T19:34:24.729Z,94.90
2022-12-08T19:36:53.525Z,95.49
2022-12-08T19:39:47.353Z,95.84
2022-12-08T19:42:38.162Z,95.92
2022-12-08T19:45:21.344Z,96.27
2022-12-08T19:47:49.940Z,95.79
2022-12-08T19:50:36.753Z,96.20
2022-12-08T19:53:12.559Z,96.36
2022-12-08T19:55:43.196Z,96.29
2022-12-08T19:58:11.734Z,96.36
2022-12-08T20:00:41.640Z,96.56
2022-12-08T20:03:15.734Z,97.00
2022-12-08T20:05:45.957Z,96.92
2022-12-08T20:08:15.532Z,96.54
2022-12-08T20:10:44.544Z,95.73
2022-12-08T20:13:32.258Z,95.80
2022-12-08T20:16:00.901Z,96.17
2022-12-08T20:18:29.649Z,96.13
2022-12-08T20:20:58.294Z,96.33
2022-12-08T20:23:26.823Z,95.99
2022-12-08T20:25:55.279Z,96.13
2022-12-08T20:28:24.126Z,95.46
2022-12-08T20:30:52.904Z,95.67
2022-12-08T20:33:22.173Z,95.72
2022-12-08T20:36:02.093Z,95.70
2022-12-08T20:38:31.103Z,96.01
2022-12-08T20:40:59.905Z,95.80
2022-12-08T20:43:28.373Z,95.85
2022-12-08T20:45:56.954Z,95.47
2022-12-08T20:48:25.914Z,95.19
2022-12-08T20:50:55.095Z,95.39
2022-12-08T20:53:23.737Z,95.13
2022-12-08T20:55:52.721Z,95.24
2022-12-08T20:58:21.517Z,95.17
2022-12-08T21:00:50.498Z,95.36
2022-12-08T21:03:19.488Z,95.25
2022-12-08T21:05:53.217Z,95.13
2022-12-08T21:08:25.409Z,95.13
2022-12-08T21:10:57.034Z,95.49
2022-12-08T21:13:25.927Z,95.64
2022-12-08T21:15:54.932Z,95.39
2022-12-08T21:18:24.794Z,95.36
2022-12-08T21:21:04.897Z,95.18
2022-12-08T21:23:35.104Z,95.22
2022-12-08T21:26:10.473Z,95.27
2022-12-08T21:28:39.460Z,95.10
2022-12-08T21:31:13.920Z,95.21
2022-12-08T21:33:43.087Z,95.45
2022-12-08T21:36:18.686Z,95.57
2022-12-08T21:38:47.977Z,95.94
2022-12-08T21:41:38.665Z,95.96
2022-12-08T21:44:11.107Z,96.11
2022-12-08T21:46:40.132Z,95.33
2022-12-08T21:49:08.963Z,94.73
2022-12-08T21:51:38.316Z,94.59
2022-12-08T21:54:07.032Z,94.68
2022-12-08T21:56:35.845Z,94.87
2022-12-08T21:59:04.648Z,94.84
2022-12-08T22:01:33.623Z,95.07
2022-12-08T22:04:02.614Z,95.38
2022-12-08T22:06:31.306Z,95.22
2022-12-08T22:09:00.224Z,95.51
2022-12-08T22:11:28.968Z,95.61
2022-12-08T22:13:57.667Z,95.80
2022-12-08T22:16:26.346Z,95.50
2022-12-08T22:18:55.135Z,95.58
2022-12-08T22:21:23.936Z,95.49
2022-12-08T22:23:52.358Z,95.53
2022-12-08T22:26:20.834Z,95.51
2022-12-08T22:28:49.410Z,95.50
2022-12-08T22:31:23.504Z,95.63
2022-12-08T22:33:52.375Z,95.60
2022-12-08T22:36:24.595Z,95.53
2022-12-08T22:38:54.170Z,95.77
2022-12-08T22:41:23.289Z,95.70
2022-12-08T22:43:51.769Z,95.89
2022-12-08T22:46:26.578Z,96.06
2022-12-08T22:48:55.336Z,96.50
2022-12-08T22:51:24.155Z,96.75
2022-12-08T22:53:52.512Z,96.60
2022-12-08T22:56:21.028Z,96.54
2022-12-08T22:58:49.704Z,96.68
2022-12-08T23:01:27.844Z,96.73
2022-12-08T23:03:57.953Z,96.31
2022-12-08T23:06:28.589Z,96.17
2022-12-08T23:08:57.970Z,96.03
2022-12-08T23:11:31.533Z,96.25
2022-12-08T23:14:01.263Z,96.23
2022-12-08T23:16:30.439Z,96.10
2022-12-08T23:18:59.674Z,96.17
2022-12-08T23:21:28.336Z,96.18
2022-12-08T23:23:57.238Z,96.35
2022-12-08T23:26:29.099Z,96.15
2022-12-08T23:28:58.995Z,96.16
2022-12-08T23:31:28.195Z,96.30
2022-12-08T23:33:57.055Z,96.65
2022-12-08T23:36:26.881Z,96.74
2022-12-08T23:38:55.934Z,96.44
2022-12-08T23:41:24.497Z,96.63
2022-12-08T23:43:53.295Z,96.88
2022-12-08T23:46:23.612Z,96.99
2022-12-08T23:48:52.278Z,96.86
2022-12-08T23:51:20.853Z,96.72
2022-12-08T23:53:49.507Z,96.78
2022-12-08T23:56:19.317Z,97.14
2022-12-08T23:58:47.933Z,97.13
